sensor_id;sensor_type;location;lat;lon;timestamp;pressure;altitude;pressure_sealevel;temperature;humidity
12666;BME280;58531;59.050;17.416;2023-05-22T00:00:38;101946.72;;;8.70;95.93
12666;BME280;58531;59.050;17.416;2023-05-22T00:03:06;101948.28;;;8.64;96.25
12666;BME280;58531;59.050;17.416;2023-05-22T00:05:35;101941.47;;;8.56;96.46
12666;BME280;58531;59.050;17.416;2023-05-22T00:08:05;101938.47;;;8.50;96.81
12666;BME280;58531;59.050;17.416;2023-05-22T00:10:36;101936.19;;;8.49;96.96
12666;BME280;58531;59.050;17.416;2023-05-22T00:13:02;101937.31;;;8.51;96.67
12666;BME280;58531;59.050;17.416;2023-05-22T00:15:29;101934.63;;;8.55;96.88
12666;BME280;58531;59.050;17.416;2023-05-22T00:17:56;101936.16;;;8.56;96.31
12666;BME280;58531;59.050;17.416;2023-05-22T00:20:25;101936.19;;;8.49;96.59
12666;BME280;58531;59.050;17.416;2023-05-22T00:22:52;101936.19;;;8.49;96.94
12666;BME280;58531;59.050;17.416;2023-05-22T00:25:21;101929.34;;;8.48;97.02
12666;BME280;58531;59.050;17.416;2023-05-22T00:27:48;101931.63;;;8.46;96.97
12666;BME280;58531;59.050;17.416;2023-05-22T00:30:14;101936.59;;;8.40;97.45
12666;BME280;58531;59.050;17.416;2023-05-22T00:32:41;101932.47;;;8.29;97.55
12666;BME280;58531;59.050;17.416;2023-05-22T00:35:09;101933.66;;;8.21;98.09
12666;BME280;58531;59.050;17.416;2023-05-22T00:37:37;101936.31;;;8.21;98.50
12666;BME280;58531;59.050;17.416;2023-05-22T00:40:05;101933.25;;;8.22;98.70
12666;BME280;58531;59.050;17.416;2023-05-22T00:42:32;101930.22;;;8.24;98.60
12666;BME280;58531;59.050;17.416;2023-05-22T00:44:59;101935.16;;;8.22;98.73
12666;BME280;58531;59.050;17.416;2023-05-22T00:47:26;101933.25;;;8.22;98.35
12666;BME280;58531;59.050;17.416;2023-05-22T00:49:53;101929.47;;;8.20;98.59
12666;BME280;58531;59.050;17.416;2023-05-22T00:52:20;101935.56;;;8.17;99.03
12666;BME280;58531;59.050;17.416;2023-05-22T00:54:49;101928.72;;;8.09;99.39
12666;BME280;58531;59.050;17.416;2023-05-22T00:57:17;101924.19;;;7.99;99.92
12666;BME280;58531;59.050;17.416;2023-05-22T00:59:45;101928.81;;;7.88;100.00
12666;BME280;58531;59.050;17.416;2023-05-22T01:02:12;101926.50;;;7.87;100.00
12666;BME280;58531;59.050;17.416;2023-05-22T01:04:42;101919.69;;;7.86;100.00
12666;BME280;58531;59.050;17.416;2023-05-22T01:07:10;101919.69;;;7.79;100.00
12666;BME280;58531;59.050;17.416;2023-05-22T01:09:36;101909.06;;;7.72;100.00
12666;BME280;58531;59.050;17.416;2023-05-22T01:12:11;101915.91;;;7.66;100.00
12666;BME280;58531;59.050;17.416;2023-05-22T01:14:46;101925.81;;;7.58;100.00
12666;BME280;58531;59.050;17.416;2023-05-22T01:17:18;101918.22;;;7.53;100.00
12666;BME280;58531;59.050;17.416;2023-05-22T01:20:00;101918.25;;;7.43;100.00
12666;BME280;58531;59.050;17.416;2023-05-22T01:22:50;101914.44;;;7.37;100.00
12666;BME280;58531;59.050;17.416;2023-05-22T01:29:01;101909.53;;;7.28;100.00
12666;BME280;58531;59.050;17.416;2023-05-22T01:31:38;101910.66;;;7.31;100.00
12666;BME280;58531;59.050;17.416;2023-05-22T01:34:09;101906.09;;;7.35;100.00
12666;BME280;58531;59.050;17.416;2023-05-22T01:36:37;101906.09;;;7.35;100.00
12666;BME280;58531;59.050;17.416;2023-05-22T01:39:05;101907.22;;;7.34;100.00
12666;BME280;58531;59.050;17.416;2023-05-22T01:41:33;101910.28;;;7.25;100.00
12666;BME280;58531;59.050;17.416;2023-05-22T01:44:01;101910.28;;;7.18;100.00
12666;BME280;58531;59.050;17.416;2023-05-22T01:46:28;101905.34;;;7.13;100.00
12666;BME280;58531;59.050;17.416;2023-05-22T01:48:57;101909.91;;;7.13;100.00
12666;BME280;58531;59.050;17.416;2023-05-22T01:51:40;101915.22;;;7.09;100.00
12666;BME280;58531;59.050;17.416;2023-05-22T01:54:15;101916.75;;;7.07;100.00
12666;BME280;58531;59.050;17.416;2023-05-22T01:56:47;101921.66;;;7.01;100.00
12666;BME280;58531;59.050;17.416;2023-05-22T01:59:24;101928.09;;;6.97;100.00
12666;BME280;58531;59.050;17.416;2023-05-22T02:01:57;101930.00;;;6.97;100.00
12666;BME280;58531;59.050;17.416;2023-05-22T02:04:29;101928.09;;;6.94;100.00
12666;BME280;58531;59.050;17.416;2023-05-22T02:06:58;101918.22;;;6.97;100.00
12666;BME280;58531;59.050;17.416;2023-05-22T02:09:27;101911.78;;;6.98;100.00
12666;BME280;58531;59.050;17.416;2023-05-22T02:11:55;101913.31;;;6.99;100.00
12666;BME280;58531;59.050;17.416;2023-05-22T02:14:23;101921.63;;;6.95;100.00
12666;BME280;58531;59.050;17.416;2023-05-22T02:16:51;101916.34;;;6.95;100.00
12666;BME280;58531;59.050;17.416;2023-05-22T02:19:18;101913.69;;;6.95;100.00
12666;BME280;58531;59.050;17.416;2023-05-22T02:21:46;101912.94;;;7.01;100.00
12666;BME280;58531;59.050;17.416;2023-05-22T02:24:13;101903.84;;;7.02;100.00
12666;BME280;58531;59.050;17.416;2023-05-22T02:26:40;101910.28;;;7.04;100.00
12666;BME280;58531;59.050;17.416;2023-05-22T02:29:07;101919.00;;;7.22;100.00
12666;BME280;58531;59.050;17.416;2023-05-22T02:31:34;101919.00;;;7.29;100.00
12666;BME280;58531;59.050;17.416;2023-05-22T02:34:00;101922.06;;;7.38;100.00
12666;BME280;58531;59.050;17.416;2023-05-22T02:36:29;101916.31;;;7.43;100.00
12666;BME280;58531;59.050;17.416;2023-05-22T02:38:58;101920.88;;;7.46;100.00
12666;BME280;58531;59.050;17.416;2023-05-22T02:41:24;101920.50;;;7.51;100.00
12666;BME280;58531;59.050;17.416;2023-05-22T02:43:51;101919.75;;;7.51;100.00
12666;BME280;58531;59.050;17.416;2023-05-22T02:46:18;101916.72;;;7.45;100.00
12666;BME280;58531;59.050;17.416;2023-05-22T02:48:45;101915.22;;;7.37;100.00
12666;BME280;58531;59.050;17.416;2023-05-22T02:51:12;101927.34;;;7.35;100.00
12666;BME280;58531;59.050;17.416;2023-05-22T02:53:39;101930.75;;;7.42;100.00
12666;BME280;58531;59.050;17.416;2023-05-22T02:56:08;101933.44;;;7.53;100.00
12666;BME280;58531;59.050;17.416;2023-05-22T02:58:36;101925.03;;;7.72;100.00
12666;BME280;58531;59.050;17.416;2023-05-22T03:01:03;101926.84;;;7.99;100.00
12666;BME280;58531;59.050;17.416;2023-05-22T03:03:31;101927.16;;;8.29;100.00
12666;BME280;58531;59.050;17.416;2023-05-22T03:05:58;101925.94;;;8.44;100.00
12666;BME280;58531;59.050;17.416;2023-05-22T03:08:25;101930.44;;;8.57;100.00
12666;BME280;58531;59.050;17.416;2023-05-22T03:10:52;101930.00;;;8.66;100.00
12666;BME280;58531;59.050;17.416;2023-05-22T03:13:21;101930.34;;;8.71;100.00
12666;BME280;58531;59.050;17.416;2023-05-22T03:15:47;101931.44;;;8.81;100.00
12666;BME280;58531;59.050;17.416;2023-05-22T03:18:14;101930.22;;;8.92;100.00
12666;BME280;58531;59.050;17.416;2023-05-22T03:20:41;101932.78;;;9.06;99.07
12666;BME280;58531;59.050;17.416;2023-05-22T03:23:10;101925.47;;;9.17;98.14
12666;BME280;58531;59.050;17.416;2023-05-22T03:25:37;101925.28;;;9.78;96.80
12666;BME280;58531;59.050;17.416;2023-05-22T03:28:04;101921.19;;;10.37;93.47
12666;BME280;58531;59.050;17.416;2023-05-22T03:30:32;101926.03;;;10.46;90.05
12666;BME280;58531;59.050;17.416;2023-05-22T03:32:59;101919.09;;;10.52;88.65
12666;BME280;58531;59.050;17.416;2023-05-22T03:35:25;101910.56;;;10.60;89.40
12666;BME280;58531;59.050;17.416;2023-05-22T03:37:52;101912.69;;;10.72;88.87
12666;BME280;58531;59.050;17.416;2023-05-22T03:40:19;101919.97;;;10.94;88.10
12666;BME280;58531;59.050;17.416;2023-05-22T03:42:46;101913.72;;;11.04;87.62
12666;BME280;58531;59.050;17.416;2023-05-22T03:45:13;101910.28;;;11.04;87.85
12666;BME280;58531;59.050;17.416;2023-05-22T03:47:42;101913.91;;;11.40;86.79
12666;BME280;58531;59.050;17.416;2023-05-22T03:50:09;101913.34;;;12.29;82.91
12666;BME280;58531;59.050;17.416;2023-05-22T03:52:36;101906.44;;;13.43;77.25
12666;BME280;58531;59.050;17.416;2023-05-22T03:55:03;101907.25;;;14.25;72.50
12666;BME280;58531;59.050;17.416;2023-05-22T03:57:30;101905.03;;;15.20;69.23
12666;BME280;58531;59.050;17.416;2023-05-22T03:59:57;101903.69;;;16.44;64.27
12666;BME280;58531;59.050;17.416;2023-05-22T04:02:30;101899.75;;;17.33;59.03
12666;BME280;58531;59.050;17.416;2023-05-22T04:04:58;101913.69;;;18.44;55.51
12666;BME280;58531;59.050;17.416;2023-05-22T04:07:25;101907.38;;;19.26;52.76
12666;BME280;58531;59.050;17.416;2023-05-22T04:09:52;101910.88;;;20.23;49.79
12666;BME280;58531;59.050;17.416;2023-05-22T04:12:19;101906.63;;;19.78;49.72
12666;BME280;58531;59.050;17.416;2023-05-22T04:14:45;101906.16;;;19.65;50.85
12666;BME280;58531;59.050;17.416;2023-05-22T04:17:12;101902.03;;;19.55;50.17
12666;BME280;58531;59.050;17.416;2023-05-22T04:19:39;101902.53;;;19.97;49.00
12666;BME280;58531;59.050;17.416;2023-05-22T04:22:07;101904.75;;;20.42;47.47
12666;BME280;58531;59.050;17.416;2023-05-22T04:24:34;101900.53;;;21.10;45.43
12666;BME280;58531;59.050;17.416;2023-05-22T04:27:04;101897.81;;;21.10;45.98
12666;BME280;58531;59.050;17.416;2023-05-22T04:29:31;101894.25;;;21.44;44.53
12666;BME280;58531;59.050;17.416;2023-05-22T04:32:00;101901.03;;;21.53;43.62
12666;BME280;58531;59.050;17.416;2023-05-22T04:34:27;101904.16;;;23.01;41.01
12666;BME280;58531;59.050;17.416;2023-05-22T04:36:54;101900.41;;;24.44;38.37
12666;BME280;58531;59.050;17.416;2023-05-22T04:39:22;101892.13;;;23.29;39.52
12666;BME280;58531;59.050;17.416;2023-05-22T04:41:50;101902.19;;;23.87;38.75
12666;BME280;58531;59.050;17.416;2023-05-22T04:44:17;101899.69;;;24.33;37.68
12666;BME280;58531;59.050;17.416;2023-05-22T04:46:47;101894.44;;;24.40;37.57
12666;BME280;58531;59.050;17.416;2023-05-22T04:49:13;101894.69;;;24.48;36.95
12666;BME280;58531;59.050;17.416;2023-05-22T04:51:40;101885.78;;;23.82;38.90
12666;BME280;58531;59.050;17.416;2023-05-22T04:54:07;101893.47;;;25.68;35.03
12666;BME280;58531;59.050;17.416;2023-05-22T04:56:35;101893.00;;;24.23;37.23
12666;BME280;58531;59.050;17.416;2023-05-22T04:59:02;101893.09;;;24.91;36.09
12666;BME280;58531;59.050;17.416;2023-05-22T05:01:33;101893.44;;;24.43;37.39
12666;BME280;58531;59.050;17.416;2023-05-22T05:04:01;101893.91;;;24.75;36.88
12666;BME280;58531;59.050;17.416;2023-05-22T05:06:27;101895.50;;;25.11;35.90
12666;BME280;58531;59.050;17.416;2023-05-22T05:08:54;101901.91;;;25.24;35.49
12666;BME280;58531;59.050;17.416;2023-05-22T05:11:21;101895.97;;;23.87;37.32
12666;BME280;58531;59.050;17.416;2023-05-22T05:13:49;101902.91;;;24.53;36.62
12666;BME280;58531;59.050;17.416;2023-05-22T05:16:16;101904.00;;;25.53;35.90
12666;BME280;58531;59.050;17.416;2023-05-22T05:18:43;101907.34;;;26.34;34.95
12666;BME280;58531;59.050;17.416;2023-05-22T05:21:10;101899.88;;;26.82;32.62
12666;BME280;58531;59.050;17.416;2023-05-22T05:23:37;101913.13;;;27.39;32.09
12666;BME280;58531;59.050;17.416;2023-05-22T05:26:04;101903.16;;;26.81;33.18
12666;BME280;58531;59.050;17.416;2023-05-22T05:28:31;101899.56;;;27.47;31.73
12666;BME280;58531;59.050;17.416;2023-05-22T05:30:59;101896.03;;;26.19;34.11
12666;BME280;58531;59.050;17.416;2023-05-22T05:33:26;101897.94;;;27.20;31.80
12666;BME280;58531;59.050;17.416;2023-05-22T05:35:53;101896.03;;;26.48;33.46
12666;BME280;58531;59.050;17.416;2023-05-22T05:38:20;101892.63;;;25.43;34.42
12666;BME280;58531;59.050;17.416;2023-05-22T05:40:47;101897.50;;;26.49;33.27
12666;BME280;58531;59.050;17.416;2023-05-22T05:43:14;101888.91;;;26.35;34.24
12666;BME280;58531;59.050;17.416;2023-05-22T05:45:40;101896.09;;;26.14;33.21
12666;BME280;58531;59.050;17.416;2023-05-22T05:48:09;101893.88;;;26.36;32.82
12666;BME280;58531;59.050;17.416;2023-05-22T05:50:36;101892.91;;;26.81;32.48
12666;BME280;58531;59.050;17.416;2023-05-22T05:53:04;101887.09;;;27.95;31.19
12666;BME280;58531;59.050;17.416;2023-05-22T05:55:31;101896.63;;;28.20;31.22
12666;BME280;58531;59.050;17.416;2023-05-22T05:57:58;101892.25;;;27.99;32.30
12666;BME280;58531;59.050;17.416;2023-05-22T06:00:25;101886.63;;;29.47;28.89
12666;BME280;58531;59.050;17.416;2023-05-22T06:02:52;101893.56;;;29.81;29.42
12666;BME280;58531;59.050;17.416;2023-05-22T06:05:20;101887.03;;;29.51;29.03
12666;BME280;58531;59.050;17.416;2023-05-22T06:07:47;101891.22;;;28.02;31.73
12666;BME280;58531;59.050;17.416;2023-05-22T06:10:14;101890.19;;;29.08;29.64
12666;BME280;58531;59.050;17.416;2023-05-22T06:12:41;101883.22;;;28.82;30.80
12666;BME280;58531;59.050;17.416;2023-05-22T06:15:08;101894.47;;;28.97;29.00
12666;BME280;58531;59.050;17.416;2023-05-22T06:17:37;101884.75;;;28.57;30.89
12666;BME280;58531;59.050;17.416;2023-05-22T06:20:05;101889.34;;;29.13;29.68
12666;BME280;58531;59.050;17.416;2023-05-22T06:22:34;101885.16;;;28.61;30.52
12666;BME280;58531;59.050;17.416;2023-05-22T06:25:01;101885.94;;;29.20;28.50
12666;BME280;58531;59.050;17.416;2023-05-22T06:27:27;101886.28;;;29.91;28.31
12666;BME280;58531;59.050;17.416;2023-05-22T06:29:54;101885.56;;;29.03;29.99
12666;BME280;58531;59.050;17.416;2023-05-22T06:32:21;101891.59;;;29.35;30.45
12666;BME280;58531;59.050;17.416;2023-05-22T06:34:48;101884.28;;;29.71;27.80
12666;BME280;58531;59.050;17.416;2023-05-22T06:37:15;101882.66;;;29.96;28.87
12666;BME280;58531;59.050;17.416;2023-05-22T06:39:43;101877.59;;;29.13;28.24
12666;BME280;58531;59.050;17.416;2023-05-22T06:42:10;101878.06;;;29.04;28.98
12666;BME280;58531;59.050;17.416;2023-05-22T06:44:36;101878.56;;;29.90;28.49
12666;BME280;58531;59.050;17.416;2023-05-22T06:47:03;101878.78;;;29.71;28.51
12666;BME280;58531;59.050;17.416;2023-05-22T06:49:31;101874.81;;;29.59;28.30
12666;BME280;58531;59.050;17.416;2023-05-22T06:51:58;101868.69;;;29.20;29.85
12666;BME280;58531;59.050;17.416;2023-05-22T06:54:24;101861.63;;;29.86;27.98
12666;BME280;58531;59.050;17.416;2023-05-22T06:56:54;101862.97;;;27.57;31.28
12666;BME280;58531;59.050;17.416;2023-05-22T06:59:21;101863.81;;;28.54;29.51
12666;BME280;58531;59.050;17.416;2023-05-22T07:01:48;101870.31;;;29.02;30.70
12666;BME280;58531;59.050;17.416;2023-05-22T07:04:15;101859.91;;;28.36;29.49
12666;BME280;58531;59.050;17.416;2023-05-22T07:06:41;101859.81;;;29.47;27.23
12666;BME280;58531;59.050;17.416;2023-05-22T07:09:10;101854.56;;;28.77;26.43
12666;BME280;58531;59.050;17.416;2023-05-22T07:11:38;101849.97;;;28.33;27.76
12666;BME280;58531;59.050;17.416;2023-05-22T07:14:08;101848.94;;;29.83;27.31
12666;BME280;58531;59.050;17.416;2023-05-22T07:16:36;101853.75;;;30.66;26.24
12666;BME280;58531;59.050;17.416;2023-05-22T07:19:03;101850.81;;;30.08;27.27
12666;BME280;58531;59.050;17.416;2023-05-22T07:21:30;101852.81;;;29.46;27.93
12666;BME280;58531;59.050;17.416;2023-05-22T07:23:59;101851.22;;;29.71;26.82
12666;BME280;58531;59.050;17.416;2023-05-22T07:26:27;101839.59;;;29.86;26.36
12666;BME280;58531;59.050;17.416;2023-05-22T07:28:54;101843.03;;;29.58;26.82
12666;BME280;58531;59.050;17.416;2023-05-22T07:31:22;101839.06;;;28.67;28.35
12666;BME280;58531;59.050;17.416;2023-05-22T07:33:49;101838.75;;;29.70;28.37
12666;BME280;58531;59.050;17.416;2023-05-22T07:36:16;101843.44;;;29.62;28.68
12666;BME280;58531;59.050;17.416;2023-05-22T07:38:43;101833.44;;;28.59;27.80
12666;BME280;58531;59.050;17.416;2023-05-22T07:41:10;101839.56;;;30.06;26.92
12666;BME280;58531;59.050;17.416;2023-05-22T07:43:37;101836.38;;;29.74;26.41
12666;BME280;58531;59.050;17.416;2023-05-22T07:46:05;101828.69;;;28.34;27.71
12666;BME280;58531;59.050;17.416;2023-05-22T07:48:35;101832.91;;;28.74;29.29
12666;BME280;58531;59.050;17.416;2023-05-22T07:51:01;101837.50;;;28.32;31.50
12666;BME280;58531;59.050;17.416;2023-05-22T07:53:29;101837.50;;;29.38;27.46
12666;BME280;58531;59.050;17.416;2023-05-22T07:55:56;101840.66;;;30.31;27.25
12666;BME280;58531;59.050;17.416;2023-05-22T07:58:22;101838.78;;;29.03;28.79
12666;BME280;58531;59.050;17.416;2023-05-22T08:00:49;101839.22;;;29.89;27.49
12666;BME280;58531;59.050;17.416;2023-05-22T08:03:16;101829.81;;;29.77;27.78
12666;BME280;58531;59.050;17.416;2023-05-22T08:05:44;101834.63;;;28.64;28.24
12666;BME280;58531;59.050;17.416;2023-05-22T08:08:11;101830.69;;;26.29;32.52
12666;BME280;58531;59.050;17.416;2023-05-22T08:10:38;101830.66;;;25.81;33.25
12666;BME280;58531;59.050;17.416;2023-05-22T08:13:05;101825.13;;;25.22;33.34
12666;BME280;58531;59.050;17.416;2023-05-22T08:15:32;101829.63;;;24.46;35.52
12666;BME280;58531;59.050;17.416;2023-05-22T08:17:59;101825.50;;;24.01;37.25
12666;BME280;58531;59.050;17.416;2023-05-22T08:20:26;101828.44;;;24.25;37.41
12666;BME280;58531;59.050;17.416;2023-05-22T08:22:54;101822.28;;;24.08;36.56
12666;BME280;58531;59.050;17.416;2023-05-22T08:25:21;101821.81;;;23.88;40.75
12666;BME280;58531;59.050;17.416;2023-05-22T08:27:47;101818.06;;;23.86;36.85
12666;BME280;58531;59.050;17.416;2023-05-22T08:30:14;101819.06;;;24.04;39.22
12666;BME280;58531;59.050;17.416;2023-05-22T08:32:41;101820.06;;;23.69;37.11
12666;BME280;58531;59.050;17.416;2023-05-22T08:35:09;101814.28;;;23.23;37.71
12666;BME280;58531;59.050;17.416;2023-05-22T08:37:35;101816.94;;;23.06;37.93
12666;BME280;58531;59.050;17.416;2023-05-22T08:40:06;101810.25;;;23.02;43.17
12666;BME280;58531;59.050;17.416;2023-05-22T08:42:36;101811.34;;;23.37;39.58
12666;BME280;58531;59.050;17.416;2023-05-22T08:45:04;101807.09;;;23.31;36.69
12666;BME280;58531;59.050;17.416;2023-05-22T08:47:33;101800.81;;;22.92;39.48
12666;BME280;58531;59.050;17.416;2023-05-22T08:50:01;101805.94;;;22.68;37.21
12666;BME280;58531;59.050;17.416;2023-05-22T08:52:32;101795.19;;;22.43;38.30
12666;BME280;58531;59.050;17.416;2023-05-22T08:55:02;101792.34;;;22.73;37.82
12666;BME280;58531;59.050;17.416;2023-05-22T08:57:31;101788.69;;;22.93;38.25
12666;BME280;58531;59.050;17.416;2023-05-22T08:59:58;101784.75;;;22.41;36.12
12666;BME280;58531;59.050;17.416;2023-05-22T09:02:25;101793.56;;;22.67;37.10
12666;BME280;58531;59.050;17.416;2023-05-22T09:04:52;101774.59;;;22.36;39.50
12666;BME280;58531;59.050;17.416;2023-05-22T09:07:19;101780.91;;;22.64;38.84
12666;BME280;58531;59.050;17.416;2023-05-22T09:09:46;101778.19;;;22.70;40.01
12666;BME280;58531;59.050;17.416;2023-05-22T09:12:13;101773.78;;;22.83;37.34
12666;BME280;58531;59.050;17.416;2023-05-22T09:14:42;101767.31;;;22.75;36.69
12666;BME280;58531;59.050;17.416;2023-05-22T09:17:13;101774.97;;;22.66;36.45
12666;BME280;58531;59.050;17.416;2023-05-22T09:19:42;101772.75;;;22.64;40.14
12666;BME280;58531;59.050;17.416;2023-05-22T09:22:10;101762.22;;;22.35;39.57
12666;BME280;58531;59.050;17.416;2023-05-22T09:24:38;101757.19;;;22.75;39.17
12666;BME280;58531;59.050;17.416;2023-05-22T09:27:07;101758.31;;;22.47;38.74
12666;BME280;58531;59.050;17.416;2023-05-22T09:29:47;101753.25;;;22.93;39.79
12666;BME280;58531;59.050;17.416;2023-05-22T09:32:15;101746.81;;;23.01;38.62
12666;BME280;58531;59.050;17.416;2023-05-22T09:34:42;101749.75;;;22.81;38.29
12666;BME280;58531;59.050;17.416;2023-05-22T09:37:11;101748.31;;;22.91;39.98
12666;BME280;58531;59.050;17.416;2023-05-22T09:39:38;101743.19;;;22.41;39.30
12666;BME280;58531;59.050;17.416;2023-05-22T09:42:07;101738.31;;;22.72;41.63
12666;BME280;58531;59.050;17.416;2023-05-22T09:44:34;101746.31;;;22.92;39.44
12666;BME280;58531;59.050;17.416;2023-05-22T09:47:04;101735.38;;;22.81;37.78
12666;BME280;58531;59.050;17.416;2023-05-22T09:49:35;101738.16;;;23.03;39.75
12666;BME280;58531;59.050;17.416;2023-05-22T09:52:03;101734.19;;;23.04;43.17
12666;BME280;58531;59.050;17.416;2023-05-22T09:54:33;101729.72;;;22.90;40.64
12666;BME280;58531;59.050;17.416;2023-05-22T09:57:02;101720.31;;;22.91;37.12
12666;BME280;58531;59.050;17.416;2023-05-22T09:59:32;101720.56;;;23.04;37.94
12666;BME280;58531;59.050;17.416;2023-05-22T10:02:05;101724.75;;;22.83;38.06
12666;BME280;58531;59.050;17.416;2023-05-22T10:04:35;101718.78;;;22.68;40.31
12666;BME280;58531;59.050;17.416;2023-05-22T10:07:05;101713.81;;;22.61;39.29
12666;BME280;58531;59.050;17.416;2023-05-22T10:09:34;101715.31;;;22.73;38.64
12666;BME280;58531;59.050;17.416;2023-05-22T10:12:05;101709.34;;;22.69;39.82
12666;BME280;58531;59.050;17.416;2023-05-22T10:14:33;101714.13;;;22.96;40.37
12666;BME280;58531;59.050;17.416;2023-05-22T10:17:01;101701.03;;;23.11;35.20
12666;BME280;58531;59.050;17.416;2023-05-22T10:19:31;101701.19;;;22.69;35.89
12666;BME280;58531;59.050;17.416;2023-05-22T10:21:59;101699.22;;;22.70;36.84
12666;BME280;58531;59.050;17.416;2023-05-22T10:24:26;101695.25;;;22.71;35.92
12666;BME280;58531;59.050;17.416;2023-05-22T10:26:54;101686.78;;;22.52;35.91
12666;BME280;58531;59.050;17.416;2023-05-22T10:29:24;101685.84;;;22.77;37.36
12666;BME280;58531;59.050;17.416;2023-05-22T10:31:59;101682.91;;;22.91;38.32
12666;BME280;58531;59.050;17.416;2023-05-22T10:34:30;101684.41;;;22.92;38.72
12666;BME280;58531;59.050;17.416;2023-05-22T10:37:10;101679.00;;;23.09;37.51
12666;BME280;58531;59.050;17.416;2023-05-22T10:39:42;101670.06;;;23.19;36.01
12666;BME280;58531;59.050;17.416;2023-05-22T10:42:14;101670.56;;;23.34;37.32
12666;BME280;58531;59.050;17.416;2023-05-22T10:44:42;101670.78;;;22.92;36.31
12666;BME280;58531;59.050;17.416;2023-05-22T10:47:09;101670.53;;;22.96;36.01
12666;BME280;58531;59.050;17.416;2023-05-22T10:49:41;101666.34;;;23.17;35.95
12666;BME280;58531;59.050;17.416;2023-05-22T10:52:10;101662.09;;;22.94;35.91
12666;BME280;58531;59.050;17.416;2023-05-22T10:54:39;101651.19;;;22.77;36.08
12666;BME280;58531;59.050;17.416;2023-05-22T10:57:12;101654.91;;;22.80;38.32
12666;BME280;58531;59.050;17.416;2023-05-22T10:59:40;101650.91;;;22.59;36.45
12666;BME280;58531;59.050;17.416;2023-05-22T11:02:18;101647.47;;;22.64;37.79
12666;BME280;58531;59.050;17.416;2023-05-22T11:04:45;101650.19;;;22.75;37.09
12666;BME280;58531;59.050;17.416;2023-05-22T11:07:13;101640.03;;;22.70;36.61
12666;BME280;58531;59.050;17.416;2023-05-22T11:09:40;101642.50;;;22.63;35.52
12666;BME280;58531;59.050;17.416;2023-05-22T11:12:17;101638.56;;;22.91;36.40
12666;BME280;58531;59.050;17.416;2023-05-22T11:14:49;101637.59;;;23.05;39.45
12666;BME280;58531;59.050;17.416;2023-05-22T11:17:17;101639.06;;;22.95;36.08
12666;BME280;58531;59.050;17.416;2023-05-22T11:19:48;101637.09;;;23.01;36.44
12666;BME280;58531;59.050;17.416;2023-05-22T11:22:29;101635.38;;;23.14;34.32
12666;BME280;58531;59.050;17.416;2023-05-22T11:24:56;101628.66;;;23.32;35.91
12666;BME280;58531;59.050;17.416;2023-05-22T11:27:23;101623.69;;;23.41;38.47
12666;BME280;58531;59.050;17.416;2023-05-22T11:29:50;101619.44;;;23.51;35.79
12666;BME280;58531;59.050;17.416;2023-05-22T11:32:17;101614.53;;;23.28;35.48
12666;BME280;58531;59.050;17.416;2023-05-22T11:34:45;101621.97;;;23.00;33.27
12666;BME280;58531;59.050;17.416;2023-05-22T11:37:14;101620.22;;;22.86;35.18
12666;BME280;58531;59.050;17.416;2023-05-22T11:39:48;101620.97;;;22.81;36.63
12666;BME280;58531;59.050;17.416;2023-05-22T11:42:17;101616.25;;;23.03;36.83
12666;BME280;58531;59.050;17.416;2023-05-22T11:44:44;101615.06;;;23.15;35.24
12666;BME280;58531;59.050;17.416;2023-05-22T11:47:10;101610.84;;;23.09;36.22
12666;BME280;58531;59.050;17.416;2023-05-22T11:49:39;101602.91;;;22.67;33.82
12666;BME280;58531;59.050;17.416;2023-05-22T11:52:06;101599.41;;;22.50;32.73
12666;BME280;58531;59.050;17.416;2023-05-22T11:54:33;101597.34;;;22.29;35.35
12666;BME280;58531;59.050;17.416;2023-05-22T11:57:04;101597.47;;;22.67;36.95
12666;BME280;58531;59.050;17.416;2023-05-22T11:59:31;101593.00;;;22.97;37.40
12666;BME280;58531;59.050;17.416;2023-05-22T12:01:58;101593.75;;;23.19;36.79
12666;BME280;58531;59.050;17.416;2023-05-22T12:04:25;101587.50;;;23.41;37.20
12666;BME280;58531;59.050;17.416;2023-05-22T12:06:52;101582.56;;;23.34;34.93
12666;BME280;58531;59.050;17.416;2023-05-22T12:09:19;101589.03;;;22.98;32.93
12666;BME280;58531;59.050;17.416;2023-05-22T12:11:47;101580.84;;;22.98;35.05
12666;BME280;58531;59.050;17.416;2023-05-22T12:14:15;101574.66;;;23.03;36.03
12666;BME280;58531;59.050;17.416;2023-05-22T12:16:42;101576.63;;;22.86;33.39
12666;BME280;58531;59.050;17.416;2023-05-22T12:19:10;101571.69;;;22.90;34.97
12666;BME280;58531;59.050;17.416;2023-05-22T12:21:37;101566.75;;;22.61;33.44
12666;BME280;58531;59.050;17.416;2023-05-22T12:24:06;101574.66;;;22.59;35.56
12666;BME280;58531;59.050;17.416;2023-05-22T12:26:35;101568.22;;;22.84;37.07
12666;BME280;58531;59.050;17.416;2023-05-22T12:29:03;101572.69;;;23.20;37.16
12666;BME280;58531;59.050;17.416;2023-05-22T12:31:34;101558.78;;;23.29;37.06
12666;BME280;58531;59.050;17.416;2023-05-22T12:34:05;101563.66;;;23.58;36.66
12666;BME280;58531;59.050;17.416;2023-05-22T12:36:33;101557.47;;;23.52;34.49
12666;BME280;58531;59.050;17.416;2023-05-22T12:39:01;101550.31;;;23.43;34.37
12666;BME280;58531;59.050;17.416;2023-05-22T12:41:27;101556.78;;;23.35;35.57
12666;BME280;58531;59.050;17.416;2023-05-22T12:43:54;101546.63;;;23.35;34.71
12666;BME280;58531;59.050;17.416;2023-05-22T12:46:21;101540.22;;;23.16;32.38
12666;BME280;58531;59.050;17.416;2023-05-22T12:48:49;101548.91;;;22.76;34.71